Nacer Castagne

Chefscout - Charleroi
22 Feb 2028
Dienstag
Verarbeitung

Persönlichkeit

Anpassungsfähigkeit (8) Ehrgeiz (9) Kontroverse (4) Loyalität (19) Druck (19) Professionalität (18) Fairness (2) Temperament (2)

Profil

Trainerstil Demokratisch
Lizenz Nationale A
Entschlossenheit 13
Menschenführung 6
Motivation 13
Disziplin 10
Arbeitszufriedenheit
100%
Ermüdung
0%
Rolle Chefscout
Gehalt 72.7K p/W
Vertrag 14.03.2029

Leistung

Verhalten Gut
Trainingseffektivität
44%
Spielerentwicklung
35%
Verletzungsprävention
35%
Taktische Umsetzung
60%

Letzte Ereignisse

Nahm an einer Scouting-Besprechung teil jetzt
Empfahl ein Transferziel jetzt
Empfahl ein Transferziel jetzt
Empfahl ein Transferziel jetzt
Empfahl ein Transferziel jetzt
Empfahl ein Transferziel 7T her
Empfahl ein Transferziel 7T her
Nahm an einer Scouting-Besprechung teil 7T her

Aktuell beobachtet

208
Spieler Verein Status Fähigkeit Vertrauen Beobachtet Zuletzt beobachtet Letzte Stimme
Jevon Simons Zulte Waregem Aktiv 118 / 115 72% 1 24.01.2028 Befürworten
Mao Hosoya Everton Verhandlung 134 / 135 67% 1 01.01.2028 Befürworten
Louis Leroux FC Nantes Aktiv 135 / 139 40% 2 31.12.2027 -
Tygo Land PSV Aktiv 130 / 130 40% 2 31.12.2027 -
Olaniyi Saheed Kwara United Aktiv 92 / 100 40% 4 13.12.2027 -
David Valencia Alianza Petrolera Aktiv 138 / 126 40% 3 13.12.2027 -
Ayden Heaven Luton Town Aktiv 149 / 148 40% 1 11.12.2027 -
Dmitry Pestryakov Dinamo Moscow Aktiv 121 / 133 40% 1 11.12.2027 -
Jan Bürger Gillingham Aktiv 111 / 127 40% 5 10.12.2027 -
Mikkel Hope Haugesund Aktiv 111 / 96 40% 1 10.12.2027 -
Mats Egbring Heerenveen Aktiv 107 / 109 40% 1 09.12.2027 -
Juan Camilo Córdoba Deportivo Pereira Aktiv 83 / 84 40% 1 09.12.2027 -
Josh Nichols Tranmere Rovers Aktiv 124 / 131 40% 1 09.12.2027 -
Luis Otávio Colorado Rapids Aktiv 112 / 121 40% 2 07.12.2027 -
Nhoa Sangui Chamois Niortais Aktiv 131 / 126 40% 2 07.12.2027 -
Ronan Kpakio Cardiff City Aktiv 124 / 131 40% 1 07.12.2027 -
Mauro Carrizo Atlético Tucumán Aktiv 108 / 97 40% 1 06.12.2027 -
Joel Ezra Enyimba Aktiv 92 / 106 40% 1 06.12.2027 -
Ignacio Fernández Boston River Aktiv 96 / 94 40% 3 20.11.2027 -
Mads Bomholt Stabaek Aktiv 100 / 104 40% 2 20.11.2027 -
Hosea Michael Remo Stars Aktiv 93 / 90 40% 2 18.11.2027 -
Alpha Touré FC Metz Aktiv 116 / 125 40% 1 18.11.2027 -
Jaygo van Ommeren Willem II Aktiv 113 / 123 40% 1 18.11.2027 -
Hervin Goyes Deportivo Pasto Aktiv 115 / 119 40% 2 11.11.2027 -
Colin Guske Orlando City Aktiv 94 / 101 40% 1 11.11.2027 -
Jofre Torrents Ajax Aktiv 136 / 132 40% 3 09.11.2027 -
Pape Diong Westerlo Aktiv 126 / 121 40% 2 09.11.2027 -
Ibrahim Coulibaly Clermont Foot Aktiv 119 / 120 40% 3 08.11.2027 -
Onuorah Onyedika Kun Khalifat Aktiv 76 / 87 40% 1 06.11.2027 -
Gift Udoh Ikorodu City Aktiv 89 / 97 40% 3 03.11.2027 -
Dominik Chong Qui Atlanta United FC Aktiv 87 / 94 40% 1 03.11.2027 -
Julián Bazán Philadelphia Union Aktiv 114 / 125 40% 1 01.11.2027 -
Issa Yusuf Shooting Stars Aktiv 86 / 98 40% 4 11.10.2027 -
Avery Appiah Ajax Aktiv 110 / 118 40% 2 11.10.2027 -
Enzo Koffi Le Havre AC Aktiv 108 / 115 40% 1 10.10.2027 -
Sebastián Ramírez Jaguares Aktiv 107 / 120 40% 1 10.10.2027 -
Archie Gray Derby County Aktiv 149 / 153 40% 1 09.10.2027 -
Lucas Høgsberg RC Strasbourg Aktiv 143 / 139 40% 1 08.10.2027 -
Marius Courcoul Angers SCO Aktiv 121 / 124 40% 2 06.10.2027 -
Alexis Vossah FC Nantes Aktiv 120 / 129 40% 1 05.10.2027 -
Travis Hernes Groningen Aktiv 103 / 109 40% 1 04.10.2027 -
Esteban de Lima Tacuarembo Aktiv 82 / 92 40% 1 04.10.2027 -
Othniël Raterink Cagliari Aktiv 109 / 121 40% 1 08.09.2027 -
Ricky Atletico Venezuela Aktiv 96 / 100 40% 1 08.09.2027 -
Juan Diego Perdomo Depor Aktiv 95 / 101 40% 1 30.08.2027 -
Samuel Posada Leones Aktiv 91 / 96 40% 1 10.08.2027 -
Matías Gómez Granada Aktiv 117 / 123 40% 2 19.07.2027 -
Adam Bakoune Ospitaletto Aktiv 96 / 102 40% 1 19.07.2027 -
Leandro Martins Benfica Aktiv 97 / 102 40% 1 19.07.2027 -
Ernie Weaver AFC Wimbledon Aktiv 109 / 123 40% 1 06.07.2027 -
Zeki Amdouni Burnley Aktiv 135 / 138 40% 2 28.06.2027 -
Tyreece Campbell Charlton Athletic Aktiv 116 / 125 40% 2 28.06.2027 -
Luis Vázquez Birmingham Aktiv 133 / 127 40% 1 28.06.2027 -
Facundo Torres LOSC Lille Verhandlung 134 / 134 67% 1 01.06.2027 Befürworten
Pedro de la Vega FC Dallas Verhandlung 133 / 134 66% 1 01.06.2027 Befürworten
Finn Azaz Southampton Aktiv 128 / 133 40% 4 30.05.2027 -
Christos Mouzakitis Hull City Aktiv 130 / 141 40% 3 30.05.2027 -
Max Bird Birmingham Aktiv 138 / 127 40% 5 30.05.2027 -
Lynden Edhart Cambuur Aktiv 105 / 117 40% 5 30.05.2027 -
Cyriaque Irié VfL Wolfsburg Aktiv 118 / 127 40% 1 30.05.2027 -
Morgan Whittaker Middlesbrough Aktiv 138 / 125 40% 2 29.05.2027 -
Richard Koné Queens Park Rangers Aktiv 125 / 119 40% 1 29.05.2027 -
Kasey McAteer Ipswich Town Aktiv 137 / 130 40% 4 27.05.2027 -
Sam Bell Bristol City Aktiv 122 / 120 40% 1 27.05.2027 -
Jason Knight Bristol City Aktiv 125 / 126 40% 2 25.05.2027 -
Ali Ahmed Norwich City Aktiv 119 / 124 40% 3 25.05.2027 -
Shea Lacey Wolverhampton Aktiv 122 / 133 40% 2 25.05.2027 -
Leo Castledine Middlesbrough Aktiv 133 / 131 40% 2 25.05.2027 -
Kamarni Ryan Burton Albion Aktiv 91 / 99 40% 1 25.05.2027 -
Othmane Maamma Watford Aktiv 127 / 131 40% 7 24.05.2027 -
Milan van Ewijk Mansfield Town Aktiv 131 / 127 40% 1 24.05.2027 -
Thulani Dala Platinum Stars Aktiv 90 / 103 40% 2 22.05.2027 -
Derensili Sanches Fernandes Huddersfield Town Aktiv 126 / 123 40% 6 20.05.2027 -
Davide Bartesaghi AC Milan Aktiv 132 / 141 40% 1 20.05.2027 -
Jack McGlynn Stoke City Aktiv 129 / 131 40% 2 17.05.2027 -
Florentino Luís Ipswich Town Aktiv 140 / 138 40% 1 17.05.2027 -
Isaac Price West Bromwich Albion Aktiv 123 / 130 40% 1 16.05.2027 -
Zeidane Inoussa Swansea City Aktiv 128 / 126 40% 2 14.05.2027 -
Mohamed Belloumi Hull City Aktiv 139 / 134 40% 1 14.05.2027 -
Scott Twine Bristol City Aktiv 129 / 123 40% 2 10.05.2027 -
Cian Ashford Cardiff City Aktiv 122 / 116 40% 3 10.05.2027 -
Caleb Yirenkyi Coventry City Aktiv 139 / 140 40% 4 09.05.2027 -
Cher Ndour Fiorentina Aktiv 139 / 131 40% 1 09.05.2027 -
Tshepang Moremi Orlando Pirates Aktiv 107 / 114 40% 8 07.05.2027 -
Ethan Galbraith Swansea City Aktiv 132 / 130 40% 2 06.05.2027 -
Ollie Tanner Cardiff City Aktiv 120 / 120 40% 1 06.05.2027 -
Félix Lemaréchal Club Brugge Aktiv 137 / 139 40% 9 04.05.2027 -
Joel McGregor Swindon Town Aktiv 96 / 101 40% 2 04.05.2027 -
Ethan Williams Peterborough United Aktiv 109 / 115 40% 3 30.04.2027 -
Isaiah Jones Luton Town Aktiv 127 / 128 40% 4 30.04.2027 -
Tadjidine Mmadi Olympique de Marseille Aktiv 92 / 101 40% 1 30.04.2027 -
Kwame Poku Queens Park Rangers Aktiv 123 / 125 40% 3 24.04.2027 -
Jack Rudoni Coventry City Aktiv 135 / 138 40% 3 22.04.2027 -
Ryan Sessegnon Fulham Aktiv 142 / 145 40% 3 22.04.2027 -
Kutlwano Letlhaku Ajax Cape Town Aktiv 121 / 130 40% 1 18.04.2027 -
Víctor Guzmán Sporting CP Aktiv 90 / 103 40% 1 18.04.2027 -
Ilyas Ansah Hull City Aktiv 131 / 138 40% 2 16.04.2027 -
Harry Clarke Preston Aktiv 129 / 122 40% 1 15.04.2027 -
Welington Southampton Aktiv 132 / 132 40% 3 13.04.2027 -
Tom Fellows Southampton Aktiv 136 / 130 40% 4 12.04.2027 -
Kwadwo Baah Watford Aktiv 124 / 129 40% 1 11.04.2027 -
Wilson Isidor Sunderland Aktiv 134 / 132 40% 1 10.04.2027 -
Reda Laalaoui Westerlo Aktiv 105 / 109 40% 2 09.04.2027 -
Mandla Erasmus SuperSport United Aktiv 116 / 115 40% 4 07.04.2027 -
Tyrese Campbell Sheffield United Aktiv 123 / 125 40% 3 06.04.2027 -
Giorgi Chakvetadze Watford Aktiv 131 / 130 40% 1 06.04.2027 -
Percy Jali Free State Stars Aktiv 94 / 101 40% 1 06.04.2027 -
Kauã Elias Anderlecht Aktiv 139 / 139 40% 1 06.04.2027 -
Tyler Goodrham Oxford United Aktiv 117 / 121 40% 2 02.04.2027 -
Mario Stroeykens Anderlecht Aktiv 136 / 130 40% 5 01.04.2027 -
Adriano Bertaccini Anderlecht Aktiv 121 / 126 40% 4 01.04.2027 -
Ruben van Bommel Ferencvaros Aktiv 145 / 139 40% 11 30.03.2027 -
Ruan Alanyaspor Aktiv 127 / 134 40% 1 29.03.2027 -
Williams Manyama SuperSport United Aktiv 121 / 114 40% 3 27.03.2027 -
Jayden Luker Barnet Aktiv 88 / 93 40% 2 27.03.2027 -
Rocco Vata Watford Aktiv 120 / 118 40% 1 27.03.2027 -
Aimé Omgba KAA Gent Aktiv 133 / 126 40% 5 23.03.2027 -
Thibaud Verlinden OH Leuven Aktiv 119 / 120 40% 3 22.03.2027 -
Oswin Appollis Orlando Pirates Aktiv 129 / 129 40% 1 19.03.2027 -
Marquinhos Spartak Moscow Aktiv 136 / 131 40% 1 18.03.2027 -
Tristan Degreef Anderlecht Aktiv 134 / 134 40% 5 17.03.2027 -
Jan Virgili Club Brugge Aktiv 138 / 139 40% 3 17.03.2027 -
Ilay Camara Anderlecht Aktiv 133 / 124 40% 2 16.03.2027 -
David Kalokoh Ajax Aktiv 118 / 117 40% 1 15.03.2027 -
Hélio Varela Maccabi Tel Aviv Aktiv 131 / 114 40% 1 11.03.2027 -
Matteo Dams Club Brugge Aktiv 130 / 137 40% 3 06.03.2027 -
Sayfallah Ltaief Cracovia Aktiv 120 / 118 40% 2 04.03.2027 -
Nathan Doualla Canon Yaounde Aktiv 86 / 103 40% 1 04.03.2027 -
Marcelo Allende Mamelodi Sundowns Aktiv 139 / 120 40% 1 23.02.2027 -
Kevin Amaro Racing Genk Aktiv 127 / 132 40% 1 15.02.2027 -
Ilias Sebaoui Sint-Truiden Aktiv 127 / 127 40% 5 12.02.2027 -
Abdelkahar Kadri KAA Gent Aktiv 127 / 125 40% 1 06.02.2027 -
Daan Heymans Racing Genk Aktiv 131 / 132 40% 2 04.02.2027 -
Thomas Claes Zulte Waregem Aktiv 112 / 129 40% 1 04.02.2027 -
Murphy Cooper Plymouth Argyle Aktiv 106 / 111 40% 2 11.01.2027 -
Nikita Haikin Standard Liege Aktiv 132 / 143 40% 1 11.01.2027 -
Cheveyo Tsawa Club Brugge Aktiv 106 / 121 72% 1 01.01.2027 Befürworten
Daniel Iversen Preston Aktiv 123 / 123 40% 1 29.12.2026 -
Christian Walton Ipswich Town Aktiv 137 / 125 40% 1 29.12.2026 -
Max O'Leary West Bromwich Albion Aktiv 124 / 125 40% 1 28.12.2026 -
Bilal Bayazıt Kayserispor Aktiv 124 / 122 40% 1 28.12.2026 -
Nacer Tielemans Mouscron Aktiv 133 / 129 40% 3 27.12.2026 -
Joel Pereira Reading Aktiv 111 / 106 40% 2 26.12.2026 -
Marko Ilić Westerlo Aktiv 121 / 121 40% 1 26.12.2026 -
Matt O'Riley Brighton Aktiv 144 / 143 40% 3 23.12.2026 Beobachten
Léo Scienza Southampton Aktiv 137 / 134 40% 5 23.12.2026 -
Senny Mayulu Paris Saint-Germain Aktiv 140 / 151 40% 2 22.12.2026 -
Lebohang Maboe Kaizer Chiefs Aktiv 106 / 108 40% 1 22.12.2026 -
Casper Nielsen Standard Liege Aktiv 130 / 116 40% 1 20.12.2026 -
Lewis Morgan SuperSport United Aktiv 127 / 128 40% 3 12.12.2026 -
Michael Cooper Sheffield United Aktiv 123 / 122 40% 2 12.12.2026 -
Harry Wilson Leeds United Aktiv 148 / 138 40% 1 12.12.2026 -
Grégoire Coudert Burnley Aktiv 126 / 127 40% 1 12.12.2026 -
Thomas van den Belt Twente Aktiv 115 / 127 40% 2 10.12.2026 -
Callum Hudson-Odoi Nottingham Forest Aktiv 148 / 146 40% 1 06.12.2026 -
Henok Teklab OH Leuven Aktiv 114 / 116 40% 5 05.12.2026 -
Ryoya Morishita Blackburn Rovers Aktiv 122 / 118 40% 1 04.12.2026 -
Nordi Mukiele Sunderland Aktiv 142 / 147 40% 1 01.12.2026 -
Fabián Paris Saint-Germain Aktiv 168 / 162 40% 4 30.11.2026 -
Gabriel Jesus Barcelona Aktiv 161 / 161 40% 4 27.11.2026 -
Reda Khadra Qarabag Aktiv 134 / 126 40% 3 24.11.2026 -
Dango Ouattara Brentford Aktiv 140 / 148 40% 1 24.11.2026 -
Matisse Samoise KAA Gent Aktiv 126 / 121 40% 1 24.11.2026 -
Adrien Truffert Bournemouth Aktiv 152 / 156 40% 3 23.11.2026 -
Ortwin De Wolf KV Mechelen Aktiv 121 / 126 40% 3 22.11.2026 -
Leander Lukaku KV Oostende Aktiv 122 / 123 40% 1 22.11.2026 -
Marco Asensio Fenerbahce Aktiv 156 / 155 40% 1 22.11.2026 -
Jason Nainggolan Mouscron Aktiv 127 / 127 40% 1 16.11.2026 -
Michael Zetterer Leeds United Aktiv 143 / 143 40% 1 16.11.2026 -
Bradley Mabunda SuperSport United Aktiv 113 / 116 40% 1 16.11.2026 -
Tomás Marchiori Vélez Aktiv 131 / 131 40% 1 16.11.2026 -
Vladan Kovačević Norwich City Aktiv 119 / 118 40% 1 12.11.2026 -
Maxence Prévot OH Leuven Aktiv 120 / 118 40% 1 12.11.2026 -
Gonzalo Fulham Aktiv 141 / 141 40% 1 10.11.2026 -
Luis Ingolotti Atlético Tucumán Aktiv 117 / 124 40% 1 09.11.2026 -
Robin Roefs Sunderland Aktiv 136 / 151 40% 1 08.11.2026 -
Arijanet Murić Sassuolo Aktiv 132 / 131 40% 1 08.11.2026 -
Mayckel Lahdo Malmo FF Aktiv 132 / 138 40% 1 02.11.2026 -
Sorba Thomas Stoke City Aktiv 125 / 132 40% 1 02.11.2026 -
Adnan Januzaj KAA Gent Aktiv 127 / 133 40% 1 01.11.2026 -
Riley McGree Middlesbrough Aktiv 129 / 134 40% 1 30.10.2026 -
Noni Madueke Arsenal Aktiv 147 / 152 40% 1 27.10.2026 -
Ryotaro Ito Sint-Truiden Aktiv 132 / 126 40% 1 23.10.2026 -
Mohammed El Hankouri Standard Liege Aktiv 119 / 131 40% 1 23.10.2026 -
Niklas Vesterlund Utrecht Aktiv 118 / 120 40% 2 22.10.2026 -
Freddie Potts Club Brugge Aktiv 133 / 140 40% 2 22.10.2026 -
Barış Alper Yılmaz Galatasaray Aktiv 154 / 155 40% 2 20.10.2026 -
Diego Valdés Vélez Aktiv 124 / 127 40% 1 19.10.2026 -
Bénie Traoré New York City Aktiv 121 / 126 40% 1 19.10.2026 -
Martín Benítez Atlético Tucumán Aktiv 113 / 125 40% 1 18.10.2026 -
Yannick Vanaken KV Oostende Aktiv 139 / 130 40% 1 18.10.2026 -
Francisco González Metilli Belgrano Aktiv 127 / 127 40% 1 18.10.2026 -
Maksim Kireev KV Mechelen Aktiv 121 / 118 40% 1 17.10.2026 -
Thorgan Witsel KV Oostende Aktiv 135 / 143 40% 1 17.10.2026 -
Ryan Gauld Vancouver Whitecaps Aktiv 135 / 136 40% 1 14.10.2026 -
Antony Portland Timbers Aktiv 129 / 131 40% 1 12.10.2026 -
Jordan Amavi NK Osijek Aktiv 117 / 118 40% 3 11.10.2026 -
Leroy Sané Galatasaray Aktiv 164 / 155 40% 1 11.10.2026 -
Moussa Doumbia Viborg Aktiv 113 / 129 40% 1 11.10.2026 -
Alan Lescano Argentinos Juniors Aktiv 136 / 137 40% 1 10.10.2026 -
Yan Diomandé Real Madrid Aktiv 154 / 158 40% 1 09.10.2026 -
Lucas Tousart KAA Gent Aktiv 134 / 136 40% 1 09.10.2026 -
Christian Tielemans KV Oostende Aktiv 143 / 135 40% 1 05.10.2026 -
Richie Laryea Toronto FC Aktiv 133 / 129 40% 1 07.09.2026 -
Rodrigo Saracho San Marcos de Arica Aktiv 106 / 112 40% 1 24.08.2026 -
Leonardo Campana New England Revolution Aktiv 121 / 129 40% 1 03.08.2026 -
Etienne Vaessen Groningen Aktiv 113 / 119 40% 1 01.08.2026 -
Daniel Sappa San Miguel Aktiv 105 / 115 40% 1 01.08.2026 -